TimeCDT,TemperatureF,Dew PointF,Humidity,Sea Level PressureIn,VisibilityMPH,Wind Direction,Wind SpeedMPH,Gust SpeedMPH,PrecipitationIn,Events,Conditions,WindDirDegrees,DateUTC
12:53 AM,55.0,-9999,N/A,30.01,10.0,NNE,12.7,-,N/A,,Partly Cloudy,30,2014-04-01 05:53:00
1:53 AM,52.0,-9999,N/A,30.00,10.0,NNE,13.8,-,N/A,,Clear,30,2014-04-01 06:53:00
2:53 AM,48.9,-9999,N/A,30.00,10.0,NNE,13.8,-,N/A,,Clear,20,2014-04-01 07:53:00
3:53 AM,46.9,-9999,N/A,30.01,10.0,NNE,12.7,-,N/A,,Mostly Cloudy,30,2014-04-01 08:53:00
4:53 AM,46.0,-9999,N/A,30.02,10.0,NNE,10.4,20.7,N/A,,Overcast,30,2014-04-01 09:53:00
5:53 AM,45.0,-9999,N/A,30.04,10.0,NE,10.4,-,N/A,,Overcast,50,2014-04-01 10:53:00
6:53 AM,44.1,-9999,N/A,30.04,10.0,NE,11.5,-,N/A,,Overcast,40,2014-04-01 11:53:00
7:53 AM,44.1,25.0,47,30.07,10.0,NE,6.9,-,N/A,,Overcast,40,2014-04-01 12:53:00
8:53 AM,45.0,25.0,46,30.05,10.0,NE,10.4,-,N/A,,Overcast,40,2014-04-01 13:53:00
9:53 AM,48.9,26.1,41,30.04,10.0,ENE,16.1,19.6,N/A,,Overcast,60,2014-04-01 14:53:00
10:53 AM,50.0,26.1,39,30.05,10.0,ENE,11.5,-,N/A,,Overcast,70,2014-04-01 15:53:00
11:53 AM,52.0,26.1,37,30.03,10.0,NE,10.4,-,N/A,,Overcast,50,2014-04-01 16:53:00
12:22 PM,53.6,26.6,35,30.03,10.0,NE,11.5,-,N/A,,Overcast,40,2014-04-01 17:22:00
12:53 PM,53.1,27.0,37,30.01,10.0,NE,10.4,-,N/A,,Overcast,50,2014-04-01 17:53:00
1:53 PM,55.0,30.9,40,29.98,10.0,East,15.0,18.4,N/A,,Overcast,100,2014-04-01 18:53:00
2:53 PM,57.9,34.0,41,29.95,10.0,ESE,9.2,-,N/A,,Overcast,120,2014-04-01 19:53:00
3:24 PM,55.4,35.6,47,29.94,10.0,SE,11.5,-,N/A,,Mostly Cloudy,140,2014-04-01 20:24:00
3:53 PM,57.0,36.0,45,29.91,10.0,East,9.2,-,N/A,,Mostly Cloudy,90,2014-04-01 20:53:00
4:12 PM,59.0,37.4,45,29.91,10.0,ESE,8.1,-,N/A,,Overcast,120,2014-04-01 21:12:00
4:53 PM,59.0,37.9,46,29.88,10.0,SE,8.1,-,N/A,,Overcast,130,2014-04-01 21:53:00
5:53 PM,60.1,39.9,47,29.86,10.0,SE,5.8,-,N/A,,Overcast,130,2014-04-01 22:53:00
6:34 PM,60.8,41.0,48,29.86,10.0,SE,8.1,-,N/A,,Scattered Clouds,130,2014-04-01 23:34:00
6:53 PM,59.0,41.0,51,29.85,10.0,ESE,6.9,-,N/A,,Clear,120,2014-04-01 23:53:00
7:53 PM,55.9,39.9,55,29.85,10.0,NE,4.6,-,N/A,,Partly Cloudy,50,2014-04-02 00:53:00
8:53 PM,53.1,41.0,64,29.85,10.0,NE,5.8,-,N/A,,Clear,40,2014-04-02 01:53:00
9:53 PM,52.0,41.0,66,29.87,10.0,North,9.2,-,N/A,,Mostly Cloudy,10,2014-04-02 02:53:00
10:53 PM,53.1,39.9,61,29.86,8.0,NE,12.7,-,N/A,,Overcast,50,2014-04-02 03:53:00
11:53 PM,52.0,39.9,63,29.83,10.0,East,8.1,-,N/A,,Clear,80,2014-04-02 04:53:00